Time;durP1;ratioP1;P1;durP2;ratioP2;P2;SDS_P1;SDS_P2;PMS_P1;PMS_P2;Temp;Humidity;BMP_temperature;BMP_pressure;BME280_temperature;BME280_humidity;BME280_pressure;Samples;Min_cycle;Max_cycle;Signal;HPM_P1;HPM_P2
2022/07/20 00:01:22;;;;;;;5.57;1.98;;;23.10;84.40;;;;;;5059909;27;20043;-96
2022/07/20 00:03:48;;;;;;;5.47;2.25;;;23.10;83.50;;;;;;5077982;27;20443;-95
2022/07/20 00:06:14;;;;;;;15.27;2.72;;;23.10;82.90;;;;;;5077386;27;20047;-93
2022/07/20 00:11:24;;;;;;;10.38;2.50;;;23.10;81.90;;;;;;5097446;27;20137;-95
2022/07/20 00:14:00;;;;;;;8.40;2.35;;;23.10;82.50;;;;;;5076208;27;20071;-94
2022/07/20 00:16:28;;;;;;;2.38;1.65;;;23.00;81.10;;;;;;5094351;27;20057;-95
2022/07/20 00:18:53;;;;;;;8.30;1.95;;;23.00;80.70;;;;;;5093126;28;20043;-93
2022/07/20 00:21:19;;;;;;;4.43;2.50;;;23.00;80.80;;;;;;5094061;27;20042;-94
2022/07/20 00:23:45;;;;;;;7.60;2.17;;;22.90;80.50;;;;;;5077229;27;20063;-94
2022/07/20 00:26:12;;;;;;;8.70;2.10;;;22.90;80.70;;;;;;5076795;27;20062;-95
2022/07/20 00:28:37;;;;;;;4.40;1.65;;;23.40;81.50;;;;;;5078229;27;20199;-95
2022/07/20 00:31:04;;;;;;;5.55;2.13;;;22.80;81.30;;;;;;5075827;27;20126;-94
2022/07/20 00:33:30;;;;;;;12.98;1.80;;;22.70;81.60;;;;;;5094791;27;20062;-94
2022/07/20 00:35:56;;;;;;;10.27;2.03;;;22.70;82.90;;;;;;5092767;27;20494;-95
2022/07/20 00:38:21;;;;;;;6.57;1.85;;;22.60;83.60;;;;;;5093758;27;20565;-94
2022/07/20 00:40:47;;;;;;;2.47;1.75;;;22.50;83.60;;;;;;5076973;27;20042;-94
2022/07/20 00:43:13;;;;;;;5.82;1.98;;;22.40;84.20;;;;;;5076191;27;20043;-94
2022/07/20 00:45:39;;;;;;;4.03;1.95;;;22.40;85.80;;;;;;5060464;27;20130;-95
2022/07/20 00:48:05;;;;;;;4.43;1.88;;;22.30;86.90;;;;;;5092723;27;20043;-94
2022/07/20 00:50:30;;;;;;;3.63;2.15;;;22.20;87.90;;;;;;5060546;27;20102;-94
2022/07/20 00:52:56;;;;;;;7.50;1.92;;;22.10;88.60;;;;;;5076252;27;20035;-94
2022/07/20 00:55:22;;;;;;;5.25;1.88;;;22.10;88.70;;;;;;5093756;27;20065;-94
2022/07/20 00:57:48;;;;;;;2.78;1.63;;;22.00;89.50;;;;;;5059836;27;20051;-93
2022/07/20 01:00:15;;;;;;;10.63;2.15;;;21.90;90.20;;;;;;5076577;27;20057;-94
2022/07/20 01:02:41;;;;;;;7.47;1.90;;;21.90;90.30;;;;;;5076853;27;20046;-94
2022/07/20 01:05:13;;;;;;;5.20;1.80;;;21.80;90.50;;;;;;5074856;27;20039;-95
2022/07/20 01:07:49;;;;;;;6.32;2.00;;;21.70;90.60;;;;;;5077641;27;20039;-94
2022/07/20 01:10:16;;;;;;;5.63;1.80;;;21.70;91.00;;;;;;5092573;27;20037;-94
2022/07/20 01:12:48;;;;;;;6.95;2.25;;;21.60;91.40;;;;;;5076217;27;20035;-94
2022/07/20 01:15:14;;;;;;;;;;;21.60;91.80;;;;;;5076250;27;20080;-94
2022/07/20 01:17:40;;;;;;;7.43;2.35;;;21.50;92.70;;;;;;5092725;27;20023;-94
2022/07/20 01:20:06;;;;;;;2.65;1.70;;;21.50;92.60;;;;;;5093379;27;20492;-94
2022/07/20 01:22:32;;;;;;;5.10;1.95;;;21.40;92.90;;;;;;5058014;27;20134;-94
2022/07/20 01:24:58;;;;;;;2.83;1.88;;;21.40;93.50;;;;;;5077110;27;20082;-94
2022/07/20 01:27:24;;;;;;;4.78;2.15;;;21.40;93.50;;;;;;5057409;27;20426;-94
2022/07/20 01:29:49;;;;;;;6.30;2.22;;;21.30;93.60;;;;;;5076047;27;20051;-95
2022/07/20 01:32:15;;;;;;;3.30;1.92;;;21.30;94.00;;;;;;5058835;27;20046;-94
2022/07/20 01:34:41;;;;;;;4.97;1.60;;;21.20;94.30;;;;;;5060416;27;20706;-94
2022/07/20 01:37:06;;;;;;;3.67;1.83;;;21.20;94.60;;;;;;5076278;27;20071;-93
2022/07/20 01:39:32;;;;;;;3.22;2.08;;;21.20;95.00;;;;;;5058767;27;20092;-94
2022/07/20 01:41:58;;;;;;;8.48;2.10;;;21.10;95.40;;;;;;5076888;27;20043;-94
2022/07/20 01:44:24;;;;;;;6.93;1.98;;;19.70;95.70;;;;;;5074007;27;20130;-95
2022/07/20 01:46:51;;;;;;;4.95;2.10;;;21.00;96.10;;;;;;5059575;27;20125;-95
2022/07/20 01:49:17;;;;;;;4.10;1.67;;;21.00;96.90;;;;;;5091997;27;20035;-94
2022/07/20 01:51:43;;;;;;;8.38;2.25;;;20.90;97.10;;;;;;5092531;27;20043;-94
2022/07/20 01:54:10;;;;;;;6.35;1.92;;;21.50;97.30;;;;;;5092130;27;20043;-95
2022/07/20 01:56:36;;;;;;;4.95;2.00;;;20.80;97.20;;;;;;5075185;27;20126;-95
2022/07/20 01:59:02;;;;;;;5.30;2.22;;;20.80;97.50;;;;;;5059708;27;20039;-94
2022/07/20 02:01:28;;;;;;;3.70;1.80;;;20.70;97.50;;;;;;5074953;27;20050;-94
2022/07/20 02:03:54;;;;;;;3.08;1.80;;;20.70;97.70;;;;;;5076662;27;20049;-94
2022/07/20 02:06:19;;;;;;;5.85;2.17;;;20.70;97.80;;;;;;5074286;27;20474;-94
2022/07/20 02:08:45;;;;;;;5.93;2.20;;;20.60;97.80;;;;;;5059142;27;20040;-95
2022/07/20 02:11:11;;;;;;;4.32;2.13;;;20.60;98.00;;;;;;5058297;27;20099;-94
2022/07/20 02:13:37;;;;;;;7.40;2.05;;;20.50;98.20;;;;;;5075239;27;20678;-94
2022/07/20 02:16:16;;;;;;;9.55;1.92;;;20.50;98.60;;;;;;5091863;27;20047;-94
2022/07/20 02:18:47;;;;;;;5.63;2.20;;;20.40;98.70;;;;;;5075799;27;20074;-94
2022/07/20 02:21:15;;;;;;;4.50;1.63;;;20.40;98.90;;;;;;5110227;27;20548;-94
2022/07/20 02:23:41;;;;;;;3.30;2.22;;;20.30;99.10;;;;;;5074335;27;20574;-94
2022/07/20 02:26:07;;;;;;;3.08;1.98;;;20.30;99.20;;;;;;5075473;27;20552;-94
2022/07/20 02:28:33;;;;;;;11.43;1.90;;;20.30;99.30;;;;;;5091373;27;20075;-95
2022/07/20 02:30:59;;;;;;;6.97;1.92;;;20.20;99.50;;;;;;5090921;27;20126;-94
2022/07/20 02:33:24;;;;;;;5.68;1.98;;;20.20;99.60;;;;;;5092348;28;20074;-95
2022/07/20 02:35:50;;;;;;;2.58;1.80;;;19.40;99.80;;;;;;5056577;27;20082;-94
2022/07/20 02:38:16;;;;;;;5.50;2.20;;;20.10;99.90;;;;;;5058898;28;20039;-94
2022/07/20 02:40:42;;;;;;;5.22;2.00;;;20.10;99.90;;;;;;5057126;28;20043;-94
2022/07/20 02:43:07;;;;;;;6.15;2.38;;;20.10;99.90;;;;;;5079810;27;20057;-94
2022/07/20 02:45:33;;;;;;;4.32;1.90;;;20.10;99.90;;;;;;5064376;27;20058;-93
2022/07/20 02:48:05;;;;;;;5.53;2.13;;;20.00;99.90;;;;;;5098553;27;20050;-94
2022/07/20 02:50:33;;;;;;;3.22;1.60;;;19.90;99.90;;;;;;5066788;27;20482;-95
2022/07/20 02:52:59;;;;;;;3.78;2.47;;;19.90;99.90;;;;;;5080800;27;20063;-95
2022/07/20 02:55:26;;;;;;;9.00;3.80;;;19.90;99.90;;;;;;5098904;27;20043;-95
2022/07/20 02:57:52;;;;;;;3.42;2.17;;;19.80;99.90;;;;;;5095929;27;20081;-95
2022/07/20 03:00:19;;;;;;;3.45;1.67;;;19.80;99.90;;;;;;5066106;27;20073;-94
2022/07/20 03:02:44;;;;;;;4.35;1.95;;;19.80;99.90;;;;;;5097551;27;20525;-94
2022/07/20 03:05:10;;;;;;;7.10;2.33;;;19.70;99.90;;;;;;5098892;27;20125;-95
2022/07/20 03:07:36;;;;;;;4.40;1.90;;;19.70;99.90;;;;;;5081380;27;20043;-95
2022/07/20 03:10:03;;;;;;;4.53;1.85;;;19.70;99.90;;;;;;5064255;27;20035;-95
2022/07/20 03:12:28;;;;;;;5.78;2.00;;;19.70;99.90;;;;;;5082059;27;20036;-93
2022/07/20 03:14:54;;;;;;;4.50;2.22;;;19.60;99.90;;;;;;5063162;27;20065;-95
2022/07/20 03:17:20;;;;;;;5.40;2.22;;;19.60;99.90;;;;;;5065345;27;20134;-94
2022/07/20 03:19:46;;;;;;;7.72;2.67;;;19.60;99.90;;;;;;5063466;27;20073;-94
2022/07/20 03:22:12;;;;;;;2.70;2.15;;;19.60;99.90;;;;;;5082276;27;20054;-92
2022/07/20 03:24:38;;;;;;;5.03;2.22;;;19.60;99.90;;;;;;5081002;27;20043;-94
2022/07/20 03:27:04;;;;;;;5.30;2.00;;;19.50;99.90;;;;;;5098453;27;20050;-94
2022/07/20 03:29:30;;;;;;;3.85;2.20;;;19.50;99.90;;;;;;5098285;27;20039;-94
2022/07/20 03:31:56;;;;;;;5.43;2.10;;;19.50;99.90;;;;;;5096831;27;20049;-93
2022/07/20 03:34:21;;;;;;;4.85;2.50;;;19.60;99.90;;;;;;5099590;27;20065;-95
2022/07/20 03:36:51;;;;;;;9.82;2.63;;;19.60;99.90;;;;;;5063369;27;20559;-94
2022/07/20 03:39:17;;;;;;;4.28;2.10;;;18.90;99.90;;;;;;5066524;27;20050;-94
2022/07/20 03:41:43;;;;;;;2.17;1.50;;;19.80;99.90;;;;;;5080985;27;20047;-94
2022/07/20 03:44:09;;;;;;;6.15;2.00;;;20.00;99.70;;;;;;5068051;27;20031;-94
2022/07/20 03:46:37;;;;;;;5.60;1.80;;;20.00;99.30;;;;;;5088796;27;20046;-95
2022/07/20 03:49:03;;;;;;;4.85;2.30;;;20.20;98.90;;;;;;5070109;27;20478;-94
2022/07/20 03:51:28;;;;;;;3.33;2.17;;;20.20;98.50;;;;;;5104420;27;20047;-95
2022/07/20 03:53:54;;;;;;;5.18;1.98;;;20.30;98.20;;;;;;5083883;28;20189;-94
2022/07/20 03:56:20;;;;;;;6.15;2.22;;;20.40;97.90;;;;;;5101537;27;20047;-94
2022/07/20 03:58:46;;;;;;;7.30;2.50;;;20.50;97.50;;;;;;5066215;27;20043;-96
2022/07/20 04:01:12;;;;;;;5.40;2.00;;;20.60;97.20;;;;;;5085697;27;20463;-94
2022/07/20 04:03:39;;;;;;;3.83;1.83;;;20.70;97.10;;;;;;5066805;27;20043;-94
2022/07/20 04:06:07;;;;;;;5.70;1.92;;;20.70;96.80;;;;;;5085522;27;20122;-94
2022/07/20 04:08:33;;;;;;;3.78;2.00;;;20.70;96.60;;;;;;5101170;27;20053;-96
2022/07/20 04:10:59;;;;;;;4.05;1.92;;;20.70;96.60;;;;;;5080567;27;20055;-94
2022/07/20 04:13:25;;;;;;;3.83;2.30;;;20.80;96.50;;;;;;5101186;27;20059;-94
2022/07/20 04:15:50;;;;;;;2.92;1.88;;;20.80;96.40;;;;;;5101650;27;20096;-95
2022/07/20 04:18:17;;;;;;;8.20;2.70;;;20.80;96.30;;;;;;5090820;27;20046;-95
2022/07/20 04:20:43;;;;;;;5.10;1.98;;;20.60;96.00;;;;;;5103588;27;20078;-94
2022/07/20 04:23:14;;;;;;;8.93;2.38;;;20.90;95.80;;;;;;5105972;27;20533;-93
2022/07/20 04:25:40;;;;;;;3.70;1.88;;;21.00;95.70;;;;;;5070040;27;20031;-93
2022/07/20 04:28:06;;;;;;;3.05;1.80;;;21.00;95.80;;;;;;5066120;27;20050;-94
2022/07/20 04:30:34;;;;;;;4.53;1.80;;;21.00;96.00;;;;;;5078633;27;20039;-93
2022/07/20 04:33:00;;;;;;;3.35;2.08;;;21.00;96.00;;;;;;5077520;27;20517;-93
2022/07/20 04:35:26;;;;;;;3.35;2.10;;;21.10;95.90;;;;;;5060719;27;20051;-94
2022/07/20 04:37:51;;;;;;;5.20;2.33;;;21.10;96.00;;;;;;5059744;27;20130;-94
2022/07/20 04:40:17;;;;;;;5.30;2.78;;;21.10;95.80;;;;;;5077650;27;20085;-93
2022/07/20 04:42:43;;;;;;;3.60;2.08;;;21.20;95.90;;;;;;5060010;27;20130;-92
2022/07/20 04:45:09;;;;;;;6.47;2.13;;;21.20;95.90;;;;;;5061131;27;20371;-94
2022/07/20 04:47:36;;;;;;;13.20;2.53;;;21.30;95.90;;;;;;5094055;27;20046;-92
2022/07/20 04:50:02;;;;;;;5.00;2.15;;;21.30;96.00;;;;;;5094238;27;20129;-93
2022/07/20 04:52:28;;;;;;;7.47;2.70;;;21.30;95.70;;;;;;5093525;27;20067;-93
2022/07/20 04:54:53;;;;;;;6.72;2.45;;;21.40;95.40;;;;;;5076532;27;20066;-94
2022/07/20 04:57:19;;;;;;;4.28;1.73;;;21.50;95.20;;;;;;5060687;27;20513;-94
2022/07/20 04:59:45;;;;;;;5.20;2.42;;;21.60;95.10;;;;;;5092915;27;20061;-93
2022/07/20 05:02:10;;;;;;;6.57;2.35;;;21.50;95.00;;;;;;5077096;27;20243;-94
2022/07/20 05:04:46;;;;;;;3.25;2.60;;;21.70;94.80;;;;;;5078003;27;20043;-96
2022/07/20 05:07:13;;;;;;;4.97;2.58;;;21.80;94.10;;;;;;5077077;27;20047;-93
2022/07/20 05:09:40;;;;;;;3.78;2.05;;;21.80;94.00;;;;;;5076928;27;20042;-94
2022/07/20 05:12:05;;;;;;;6.00;2.50;;;21.90;93.90;;;;;;5075820;27;20546;-93
2022/07/20 05:14:31;;;;;;;5.75;3.20;;;21.90;93.60;;;;;;5076963;27;20039;-92
2022/07/20 05:16:57;;;;;;;6.03;2.47;;;22.00;93.40;;;;;;5092472;27;20039;-96
2022/07/20 05:19:23;;;;;;;5.13;2.78;;;22.10;93.30;;;;;;5078645;27;20086;-95
2022/07/20 05:21:49;;;;;;;4.05;2.42;;;22.10;93.30;;;;;;5093543;27;20032;-96
2022/07/20 05:24:15;;;;;;;4.38;2.30;;;22.20;93.00;;;;;;5096587;27;20057;-95
2022/07/20 05:26:40;;;;;;;5.75;2.38;;;22.00;92.90;;;;;;5095430;27;20079;-96
2022/07/20 05:29:06;;;;;;;6.85;2.67;;;22.40;92.80;;;;;;5060279;27;20047;-93
2022/07/20 05:31:32;;;;;;;8.13;2.97;;;22.40;93.00;;;;;;5094378;27;20058;-88
2022/07/20 05:33:58;;;;;;;4.03;2.20;;;22.40;93.10;;;;;;5107239;27;20048;-88
2022/07/20 05:36:26;;;;;;;7.80;2.42;;;22.50;93.10;;;;;;5093021;27;20053;-95
2022/07/20 05:38:52;;;;;;;7.38;3.28;;;22.50;93.10;;;;;;5074510;27;20035;-88
2022/07/20 05:41:18;;;;;;;12.02;3.15;;;22.60;93.20;;;;;;5092087;27;20035;-88
2022/07/20 05:43:44;;;;;;;13.57;2.60;;;22.70;93.20;;;;;;5074649;27;20054;-91
2022/07/20 05:46:10;;;;;;;9.30;2.40;;;22.80;93.10;;;;;;5074383;27;20121;-88
2022/07/20 05:48:35;;;;;;;11.20;2.50;;;22.80;93.50;;;;;;5057680;27;20042;-89
2022/07/20 05:51:01;;;;;;;5.15;2.67;;;22.90;93.40;;;;;;5057465;27;20467;-88
2022/07/20 05:53:28;;;;;;;6.60;2.10;;;23.00;93.10;;;;;;5081115;27;20044;-94
2022/07/20 05:55:54;;;;;;;10.73;2.50;;;23.00;93.30;;;;;;5064205;27;20046;-95
2022/07/20 05:58:20;;;;;;;7.25;2.55;;;23.10;93.50;;;;;;5067493;27;20134;-96
2022/07/20 06:00:47;;;;;;;6.47;2.42;;;23.20;93.30;;;;;;5100866;27;20076;-93
2022/07/20 06:03:23;;;;;;;9.07;2.58;;;23.30;93.20;;;;;;5097625;27;20066;-96
2022/07/20 06:05:49;;;;;;;6.70;2.80;;;23.40;93.10;;;;;;5107516;27;20100;-94
2022/07/20 06:08:15;;;;;;;15.23;2.65;;;23.40;93.10;;;;;;5093657;27;20031;-90
2022/07/20 06:10:41;;;;;;;7.95;2.60;;;23.60;92.80;;;;;;5057567;27;20039;-92
2022/07/20 06:13:07;;;;;;;5.28;2.30;;;23.70;92.70;;;;;;5062284;27;20043;-93
2022/07/20 06:15:33;;;;;;;8.35;3.08;;;23.80;92.90;;;;;;5094055;27;20035;-93
2022/07/20 06:17:58;;;;;;;13.68;3.10;;;23.90;92.40;;;;;;5059925;27;20043;-91
2022/07/20 06:20:24;;;;;;;6.30;2.78;;;24.10;92.00;;;;;;5063442;27;20049;-92
2022/07/20 06:22:50;;;;;;;13.40;3.17;;;24.20;91.50;;;;;;5082729;27;20088;-90
2022/07/20 06:25:17;;;;;;;3.35;2.58;;;24.30;90.90;;;;;;5098015;28;20039;-91
2022/07/20 06:27:43;;;;;;;4.80;1.73;;;24.40;90.10;;;;;;5079746;27;20040;-90
2022/07/20 06:30:11;;;;;;;6.57;2.78;;;24.60;88.70;;;;;;5078500;27;20095;-90
2022/07/20 06:32:38;;;;;;;8.98;2.42;;;24.70;86.10;;;;;;5076522;27;20043;-89
2022/07/20 06:35:04;;;;;;;9.77;2.30;;;24.90;83.80;;;;;;5090472;28;20076;-92
2022/07/20 06:37:30;;;;;;;5.18;2.17;;;25.10;81.90;;;;;;5088805;28;20126;-91
2022/07/20 06:39:56;;;;;;;5.47;2.17;;;25.20;81.00;;;;;;5071531;28;20135;-89
2022/07/20 06:42:21;;;;;;;4.80;2.67;;;25.30;79.40;;;;;;5071334;28;20057;-90
2022/07/20 06:44:47;;;;;;;5.55;2.00;;;25.50;78.30;;;;;;5054295;28;20093;-91
2022/07/20 06:47:14;;;;;;;3.58;2.30;;;25.60;76.90;;;;;;5072210;28;20040;-91
2022/07/20 06:49:40;;;;;;;9.93;2.83;;;25.80;74.20;;;;;;5087251;28;20070;-91
2022/07/20 06:52:06;;;;;;;3.10;2.13;;;25.90;73.00;;;;;;5071577;28;20039;-90
2022/07/20 06:54:31;;;;;;;5.07;2.15;;;26.00;72.20;;;;;;5086761;28;20434;-90
2022/07/20 06:56:57;;;;;;;6.63;2.55;;;26.10;71.50;;;;;;5071155;28;20043;-92
2022/07/20 06:59:23;;;;;;;4.57;2.03;;;26.20;71.70;;;;;;5087266;28;20044;-90
2022/07/20 07:01:50;;;;;;;10.25;2.83;;;26.30;70.40;;;;;;5087586;28;20043;-88
2022/07/20 07:04:16;;;;;;;5.43;2.25;;;26.40;68.80;;;;;;5087825;28;20039;-89
2022/07/20 07:06:42;;;;;;;3.80;2.75;;;26.50;68.50;;;;;;5086709;28;20088;-90
2022/07/20 07:09:09;;;;;;;4.50;2.80;;;26.50;67.80;;;;;;5088270;28;20044;-92
2022/07/20 07:11:35;;;;;;;5.80;2.60;;;26.60;67.10;;;;;;5070253;28;20052;-92
2022/07/20 07:14:00;;;;;;;3.97;2.30;;;26.70;66.70;;;;;;5070873;28;20245;-92
2022/07/20 07:16:26;;;;;;;8.13;2.72;;;26.70;66.20;;;;;;5053618;28;20138;-92
2022/07/20 07:18:52;;;;;;;7.78;2.78;;;26.90;66.00;;;;;;5055714;28;20726;-93
2022/07/20 07:21:18;;;;;;;4.93;2.33;;;27.00;65.70;;;;;;5070838;28;20049;-89
2022/07/20 07:23:49;;;;;;;7.05;2.80;;;27.10;65.30;;;;;;5071141;28;20044;-91
2022/07/20 07:26:20;;;;;;;8.03;2.57;;;27.10;65.50;;;;;;5061411;28;20051;-93
2022/07/20 07:28:46;;;;;;;6.43;3.75;;;27.20;65.20;;;;;;5094409;28;20051;-90
2022/07/20 07:31:12;;;;;;;4.47;2.60;;;27.30;64.20;;;;;;5099075;28;20051;-95
2022/07/20 07:33:38;;;;;;;4.70;2.85;;;27.40;63.80;;;;;;5078364;27;20043;-93
2022/07/20 07:36:05;;;;;;;5.80;2.90;;;27.50;64.30;;;;;;5098289;27;20051;-93
2022/07/20 07:38:31;;;;;;;10.32;3.33;;;27.60;63.50;;;;;;5077481;27;20434;-87
2022/07/20 07:40:57;;;;;;;10.07;3.17;;;27.60;62.80;;;;;;5111228;27;20435;-87
2022/07/20 07:43:23;;;;;;;6.88;3.63;;;27.60;62.90;;;;;;5094247;27;20445;-88
2022/07/20 07:45:49;;;;;;;5.97;3.42;;;27.70;62.80;;;;;;5110491;27;20545;-87
2022/07/20 07:48:14;;;;;;;9.35;3.58;;;27.70;62.50;;;;;;5094330;27;20125;-87
2022/07/20 07:50:42;;;;;;;5.30;3.15;;;27.80;62.90;;;;;;5059178;27;20398;-87
2022/07/20 07:53:08;;;;;;;9.20;3.33;;;27.90;63.10;;;;;;5111184;27;20398;-87
2022/07/20 07:55:35;;;;;;;10.38;3.67;;;27.90;63.00;;;;;;5075811;27;20051;-87
2022/07/20 07:58:01;;;;;;;6.45;3.50;;;27.90;63.20;;;;;;5110724;27;20043;-87
2022/07/20 08:00:26;;;;;;;7.22;3.40;;;28.00;63.50;;;;;;5093491;27;20050;-86
2022/07/20 08:02:53;;;;;;;7.13;4.20;;;28.10;63.90;;;;;;5110544;27;20045;-86
2022/07/20 08:05:19;;;;;;;14.32;5.57;;;28.10;64.00;;;;;;5076977;27;20509;-86
2022/07/20 08:07:45;;;;;;;5.25;4.03;;;28.20;64.60;;;;;;5109685;27;20054;-86
2022/07/20 08:10:10;;;;;;;9.60;5.38;;;28.30;65.60;;;;;;5093704;27;20046;-85
2022/07/20 08:12:37;;;;;;;9.00;4.45;;;28.40;66.00;;;;;;5075434;27;20039;-86
2022/07/20 08:15:04;;;;;;;6.75;4.35;;;28.50;66.60;;;;;;5110518;27;20036;-86
2022/07/20 08:17:30;;;;;;;10.65;5.05;;;28.60;66.40;;;;;;5075609;27;20043;-86
2022/07/20 08:19:56;;;;;;;8.35;4.80;;;28.70;66.90;;;;;;5094043;27;20035;-94
2022/07/20 08:22:21;;;;;;;11.00;6.13;;;28.70;67.30;;;;;;5079908;27;20049;-95
2022/07/20 08:24:47;;;;;;;11.55;5.35;;;28.70;68.00;;;;;;5078483;27;20110;-96
2022/07/20 08:27:13;;;;;;;9.73;4.90;;;28.70;69.00;;;;;;5095574;27;20110;-95
2022/07/20 08:29:39;;;;;;;11.40;5.72;;;28.70;69.60;;;;;;5095873;27;20115;-93
2022/07/20 08:32:05;;;;;;;8.98;5.97;;;28.80;70.60;;;;;;5077030;27;20051;-93
2022/07/20 08:34:30;;;;;;;15.20;6.60;;;28.80;71.60;;;;;;5079444;28;20058;-94
2022/07/20 08:36:56;;;;;;;17.33;7.03;;;28.90;72.00;;;;;;5060699;28;20135;-94
2022/07/20 08:39:22;;;;;;;10.65;6.22;;;29.00;72.50;;;;;;5075339;28;20043;-93
2022/07/20 08:41:48;;;;;;;15.32;6.65;;;29.10;73.20;;;;;;5091431;28;20043;-95
2022/07/20 08:44:14;;;;;;;16.20;7.68;;;29.70;74.40;;;;;;5076623;28;20054;-94
2022/07/20 08:46:43;;;;;;;10.35;6.32;;;29.20;74.80;;;;;;5056807;28;20075;-95
2022/07/20 08:49:09;;;;;;;11.13;7.65;;;29.30;75.40;;;;;;5092593;28;20440;-95
2022/07/20 08:51:37;;;;;;;11.63;8.73;;;29.40;75.90;;;;;;5074348;28;20057;-96
2022/07/20 08:54:09;;;;;;;17.25;9.23;;;29.40;76.30;;;;;;5063810;28;20130;-96
2022/07/20 08:56:37;;;;;;;;;;;29.40;77.20;;;;;;5091421;28;20098;-93
2022/07/20 08:59:02;;;;;;;14.38;9.02;;;29.40;79.90;;;;;;5074354;28;19919;-94
2022/07/20 09:01:28;;;;;;;17.33;10.13;;;29.40;78.80;;;;;;5077688;28;20184;-96
2022/07/20 09:04:12;;;;;;;13.82;10.02;;;29.50;79.70;;;;;;5090054;28;20052;-96
2022/07/20 09:07:01;;;;;;;18.65;10.00;;;29.60;80.70;;;;;;5107224;28;20069;-96
2022/07/20 09:09:41;;;;;;;17.58;11.32;;;29.70;82.20;;;;;;5125004;28;20043;-96
2022/07/20 09:12:07;;;;;;;16.63;12.27;;;29.80;81.30;;;;;;5102949;28;20123;-95
2022/07/20 09:14:49;;;;;;;18.25;13.27;;;29.80;81.70;;;;;;5082864;28;20048;-96
2022/07/20 09:17:27;;;;;;;20.20;12.45;;;29.80;83.10;;;;;;5088712;28;20055;-95
2022/07/20 09:20:16;;;;;;;18.20;12.20;;;29.90;85.20;;;;;;5069919;28;20082;-96
2022/07/20 09:22:47;;;;;;;15.63;11.75;;;30.00;86.10;;;;;;5015948;28;20052;-96
2022/07/20 09:25:32;;;;;;;20.55;11.95;;;30.10;85.80;;;;;;5083709;28;20046;-95
2022/07/20 09:28:03;;;;;;;18.83;12.50;;;30.10;86.10;;;;;;5058143;28;20047;-94
2022/07/20 09:30:29;;;;;;;19.33;12.55;;;30.20;86.50;;;;;;5053737;28;20051;-96
2022/07/20 09:33:00;;;;;;;28.27;14.10;;;29.70;85.70;;;;;;5058280;28;20044;-94
2022/07/20 09:35:31;;;;;;;17.48;13.10;;;30.20;85.40;;;;;;5065606;28;20044;-96
2022/07/20 09:37:59;;;;;;;24.77;14.15;;;30.20;85.50;;;;;;5055110;28;20040;-96
2022/07/20 09:40:25;;;;;;;25.08;14.27;;;30.20;86.00;;;;;;5055697;28;20051;-95
2022/07/20 09:42:51;;;;;;;20.02;13.65;;;30.10;87.10;;;;;;5055027;28;20043;-94
2022/07/20 09:45:28;;;;;;;20.77;14.70;;;30.20;87.70;;;;;;5051886;28;20044;-93
2022/07/20 09:48:08;;;;;;;22.40;15.05;;;30.10;87.40;;;;;;5059594;28;20076;-95
2022/07/20 09:50:38;;;;;;;22.20;15.32;;;30.00;87.90;;;;;;5075181;28;20036;-90
2022/07/20 09:53:04;;;;;;;26.73;14.32;;;29.90;88.60;;;;;;5105483;28;20047;-96
2022/07/20 09:55:32;;;;;;;24.65;15.40;;;29.90;90.00;;;;;;5079676;28;20043;-95
2022/07/20 09:57:58;;;;;;;20.33;13.77;;;29.90;89.80;;;;;;5095762;28;20050;-94
2022/07/20 10:00:24;;;;;;;24.25;13.55;;;29.80;90.00;;;;;;5075854;28;20126;-94
2022/07/20 10:02:53;;;;;;;19.98;13.43;;;29.80;89.60;;;;;;5071863;28;20049;-94
2022/07/20 10:05:20;;;;;;;26.33;14.40;;;29.80;88.70;;;;;;5072115;28;20050;-94
2022/07/20 10:07:46;;;;;;;22.35;14.15;;;29.80;88.40;;;;;;5089357;28;20082;-94
2022/07/20 10:10:13;;;;;;;21.48;14.02;;;29.90;88.80;;;;;;5070912;28;20043;-93
2022/07/20 10:12:39;;;;;;;22.60;13.95;;;29.90;86.20;;;;;;5072433;28;20071;-93
2022/07/20 10:15:18;;;;;;;17.92;12.98;;;29.90;82.60;;;;;;5070986;28;20090;-92
2022/07/20 10:17:45;;;;;;;28.30;14.05;;;29.90;80.60;;;;;;5088871;28;20071;-92
2022/07/20 10:20:34;;;;;;;21.45;13.70;;;29.90;80.30;;;;;;5088254;28;20134;-93
2022/07/20 10:23:15;;;;;;;17.17;12.13;;;30.00;78.30;;;;;;5087322;28;20051;-94
2022/07/20 10:25:42;;;;;;;23.75;11.57;;;30.00;75.70;;;;;;5088581;28;20089;-92
2022/07/20 10:28:28;;;;;;;17.08;10.98;;;30.00;74.80;;;;;;5087004;28;20075;-93
2022/07/20 10:31:00;;;;;;;13.15;10.02;;;30.00;71.70;;;;;;5072398;28;20044;-94
2022/07/20 10:33:26;;;;;;;17.05;10.35;;;30.00;70.10;;;;;;5074737;28;20031;-94
2022/07/20 10:36:41;;;;;;;16.67;10.85;;;30.00;69.30;;;;;;5088860;28;20476;-93
2022/07/20 10:38:39;;;;;;;18.25;10.82;;;30.00;68.40;;;;;;5078313;28;20143;-95
2022/07/20 10:44:22;;;;;;;20.60;9.90;;;30.10;66.70;;;;;;5105310;28;20423;-93
2022/07/20 10:46:49;;;;;;;17.05;10.20;;;30.10;66.20;;;;;;5089074;28;20054;-93
2022/07/20 10:49:16;;;;;;;13.38;9.27;;;30.10;67.20;;;;;;5087972;28;20051;-93
2022/07/20 10:51:43;;;;;;;21.50;11.00;;;30.30;68.20;;;;;;5072062;28;20131;-94
2022/07/20 10:54:44;;;;;;;14.27;9.75;;;30.40;68.20;;;;;;5087260;28;20040;-93
2022/07/20 10:57:10;;;;;;;15.50;10.13;;;30.60;68.50;;;;;;4973970;28;20046;-93
2022/07/20 10:59:36;;;;;;;15.50;8.95;;;30.60;67.50;;;;;;5051376;28;20079;-93
2022/07/20 11:02:02;;;;;;;13.02;7.72;;;30.70;67.00;;;;;;5053769;28;20081;-93
2022/07/20 11:04:28;;;;;;;9.60;7.18;;;30.80;66.90;;;;;;5057303;28;20040;-93
2022/07/20 11:06:53;;;;;;;15.25;8.13;;;30.90;65.90;;;;;;5057726;28;20043;-92
2022/07/20 11:09:29;;;;;;;13.45;7.93;;;31.00;65.20;;;;;;5059116;28;20047;-93
2022/07/20 11:11:55;;;;;;;14.30;8.20;;;31.00;64.00;;;;;;5076340;28;20548;-92
2022/07/20 11:14:24;;;;;;;11.15;7.57;;;31.10;63.30;;;;;;5092263;28;20135;-91
2022/07/20 11:16:54;;;;;;;15.98;8.00;;;31.10;62.60;;;;;;5058583;28;20134;-94
2022/07/20 11:19:20;;;;;;;10.20;7.65;;;31.00;62.30;;;;;;5090750;28;20043;-93
2022/07/20 11:21:46;;;;;;;13.02;7.50;;;31.00;62.30;;;;;;5075483;28;20050;-95
2022/07/20 11:24:25;;;;;;;13.02;7.38;;;31.00;62.10;;;;;;5057569;28;20075;-93
2022/07/20 11:26:52;;;;;;;13.52;6.80;;;31.00;62.30;;;;;;5092784;28;20386;-93
2022/07/20 11:29:18;;;;;;;14.23;7.32;;;31.10;62.80;;;;;;5074748;28;20491;-92
2022/07/20 11:31:43;;;;;;;17.15;7.93;;;31.20;62.00;;;;;;5074791;28;20040;-93
2022/07/20 11:34:12;;;;;;;14.75;6.65;;;31.30;61.30;;;;;;5075404;28;20043;-93
2022/07/20 11:36:38;;;;;;;11.32;6.88;;;31.30;61.10;;;;;;5090741;28;20043;-95
2022/07/20 11:39:07;;;;;;;15.45;7.53;;;31.30;61.60;;;;;;5092666;28;20039;-93
2022/07/20 11:41:34;;;;;;;12.27;7.35;;;31.30;60.30;;;;;;5090976;28;20076;-92
2022/07/20 11:44:03;;;;;;;9.98;7.05;;;31.20;60.30;;;;;;5092378;28;20036;-93
2022/07/20 11:46:34;;;;;;;14.20;7.68;;;31.20;60.50;;;;;;5091921;28;20126;-93
2022/07/20 11:49:06;;;;;;;12.20;8.00;;;31.20;60.80;;;;;;5091203;28;20089;-93
2022/07/20 11:51:33;;;;;;;10.48;6.97;;;31.40;60.80;;;;;;5091930;28;20486;-93
2022/07/20 11:53:59;;;;;;;9.57;6.68;;;31.40;60.60;;;;;;5091081;28;20483;-92
2022/07/20 11:56:27;;;;;;;16.35;8.85;;;31.50;59.90;;;;;;5092326;28;20063;-93
2022/07/20 11:58:55;;;;;;;8.30;7.18;;;31.50;59.40;;;;;;5092438;28;20035;-93
2022/07/20 12:01:32;;;;;;;9.13;6.53;;;31.50;59.20;;;;;;5092193;28;20039;-94
2022/07/20 12:04:02;;;;;;;11.05;6.60;;;31.50;58.20;;;;;;5091312;28;20082;-94
2022/07/20 12:06:33;;;;;;;9.05;6.60;;;31.60;58.20;;;;;;5090328;28;20123;-93
2022/07/20 12:09:21;;;;;;;10.48;6.60;;;31.60;57.80;;;;;;5074994;28;20035;-92
2022/07/20 12:11:59;;;;;;;13.70;6.45;;;31.70;57.70;;;;;;5091300;28;20491;-96
2022/07/20 12:14:40;;;;;;;7.38;5.32;;;31.70;56.30;;;;;;5091519;28;20392;-95
2022/07/20 12:17:19;;;;;;;7.60;4.90;;;31.70;56.50;;;;;;5090894;28;20043;-94
2022/07/20 12:19:47;;;;;;;8.32;5.10;;;31.60;55.80;;;;;;5090547;28;20682;-93
2022/07/20 12:22:23;;;;;;;8.60;5.95;;;31.70;56.70;;;;;;5075035;28;20051;-95
2022/07/20 12:25:18;;;;;;;8.05;5.20;;;31.60;55.10;;;;;;5094371;28;20541;-93
2022/07/20 12:27:45;;;;;;;12.43;5.90;;;31.70;54.10;;;;;;5073016;28;20112;-95
2022/07/20 12:30:30;;;;;;;15.52;5.25;;;31.80;55.40;;;;;;5095466;28;20402;-94
2022/07/20 12:33:11;;;;;;;11.10;5.10;;;31.80;54.60;;;;;;5094323;28;20039;-91
2022/07/20 12:35:39;;;;;;;9.00;5.10;;;31.70;55.00;;;;;;5097348;28;20055;-94
2022/07/20 12:38:05;;;;;;;8.68;5.05;;;31.60;54.90;;;;;;5098421;28;20047;-94
2022/07/20 12:40:40;;;;;;;11.57;5.30;;;31.70;54.60;;;;;;5079503;28;20468;-95
2022/07/20 12:43:29;;;;;;;12.48;5.90;;;31.70;53.20;;;;;;5097709;28;20068;-94
2022/07/20 12:45:56;;;;;;;8.27;5.78;;;31.70;50.80;;;;;;5095322;28;20044;-94
2022/07/20 12:48:22;;;;;;;9.57;5.93;;;31.60;52.40;;;;;;5079586;28;20039;-95
2022/07/20 12:50:48;;;;;;;12.27;6.03;;;31.70;52.50;;;;;;5060738;28;20059;-95
2022/07/20 12:53:13;;;;;;;8.93;5.97;;;31.80;53.20;;;;;;5077844;28;20050;-95